Map

Track Data

SID SEASON NUMBER BASIN SUBBASIN NAME ISO_TIME NATURE LAT LON WMO_WIND WMO_PRES WMO_AGENCY TRACK_TYPE DIST2LAND LANDFALL IFLAG USA_AGENCY USA_ATCF_ID USA_LAT USA_LON USA_RECORD USA_STATUS USA_WIND USA_PRES USA_SSHS USA_R34_NE USA_R34_SE USA_R34_SW USA_R34_NW USA_R50_NE USA_R50_SE USA_R50_SW USA_R50_NW USA_R64_NE USA_R64_SE USA_R64_SW USA_R64_NW USA_POCI USA_ROCI USA_RMW USA_EYE TOKYO_LAT TOKYO_LON TOKYO_GRADE TOKYO_WIND TOKYO_PRES TOKYO_R50_DIR TOKYO_R50_LONG TOKYO_R50_SHORT TOKYO_R30_DIR TOKYO_R30_LONG TOKYO_R30_SHORT TOKYO_LAND CMA_LAT CMA_LON CMA_CAT CMA_WIND CMA_PRES HKO_LAT HKO_LON HKO_CAT HKO_WIND HKO_PRES NEWDELHI_LAT NEWDELHI_LON NEWDELHI_GRADE NEWDELHI_WIND NEWDELHI_PRES NEWDELHI_CI NEWDELHI_DP NEWDELHI_POCI REUNION_LAT REUNION_LON REUNION_TYPE REUNION_WIND REUNION_PRES REUNION_TNUM REUNION_CI REUNION_RMW REUNION_R34_NE REUNION_R34_SE REUNION_R34_SW REUNION_R34_NW REUNION_R50_NE REUNION_R50_SE REUNION_R50_SW REUNION_R50_NW REUNION_R64_NE REUNION_R64_SE REUNION_R64_SW REUNION_R64_NW BOM_LAT BOM_LON BOM_TYPE BOM_WIND BOM_PRES BOM_TNUM BOM_CI BOM_RMW BOM_R34_NE BOM_R34_SE BOM_R34_SW BOM_R34_NW BOM_R50_NE BOM_R50_SE BOM_R50_SW BOM_R50_NW BOM_R64_NE BOM_R64_SE BOM_R64_SW BOM_R64_NW BOM_ROCI BOM_POCI BOM_EYE BOM_POS_METHOD BOM_PRES_METHOD NADI_LAT NADI_LON NADI_CAT NADI_WIND NADI_PRES WELLINGTON_LAT WELLINGTON_LON WELLINGTON_WIND WELLINGTON_PRES DS824_LAT DS824_LON DS824_STAGE DS824_WIND DS824_PRES TD9636_LAT TD9636_LON TD9636_STAGE TD9636_WIND TD9636_PRES TD9635_LAT TD9635_LON TD9635_WIND TD9635_PRES TD9635_ROCI NEUMANN_LAT NEUMANN_LON NEUMANN_CLASS NEUMANN_WIND NEUMANN_PRES MLC_LAT MLC_LON MLC_CLASS MLC_WIND MLC_PRES USA_GUST BOM_GUST BOM_GUST_PER REUNION_GUST REUNION_GUST_PER USA_SEAHGT USA_SEARAD_NE USA_SEARAD_SE USA_SEARAD_SW USA_SEARAD_NW STORM_SPEED STORM_DIR
1922188N20089 1922 34 NI BB NOT_NAMED 1922-07-07 00:00:00 TS 19.6000 89.0000 main 223 201 _________O____ -1 19.6000 89.0000 TC 30 4 341
1922188N20089 1922 34 NI BB NOT_NAMED 1922-07-07 03:00:00 TS 19.7717 88.9384 main 201 178 _________PO___ -1 19.8575 88.9076 TC 30 19.6000 89.0000 1 4 339
1922188N20089 1922 34 NI BB NOT_NAMED 1922-07-07 06:00:00 TS 20.0038 88.8334 main 179 156 _________OP___ -1 20.1000 88.8000 TC 30 19.8595 88.8834 1 5 335
1922188N20089 1922 34 NI BB NOT_NAMED 1922-07-07 09:00:00 TS 20.2251 88.7071 main 157 134 _________PP___ -1 20.3150 88.6650 TC 30 20.1052 88.7632 1 5 329
1922188N20089 1922 34 NI BB NOT_NAMED 1922-07-07 12:00:00 TS 20.4116 88.5682 main 134 111 _________OP___ -1 20.5000 88.5000 TC 30 20.3233 88.6365 1 5 321
1922188N20089 1922 34 NI BB NOT_NAMED 1922-07-07 15:00:00 TS 20.5825 88.4037 main 111 100 _________PO___ -1 20.6650 88.3075 TC 30 20.5000 88.5000 1 4 313
1922188N20089 1922 34 NI BB NOT_NAMED 1922-07-07 18:00:00 TS 20.7146 88.2247 main 100 89 _________OP___ -1 20.8000 88.1000 TC 30 20.6291 88.3493 1 4 305
1922188N20089 1922 34 NI BB NOT_NAMED 1922-07-07 21:00:00 TS 20.8097 88.0518 main 90 80 _________PP___ -1 20.8848 87.9297 TC 30 20.7346 88.1739 1 4 300
1922188N20089 1922 34 NI BB NOT_NAMED 1922-07-08 00:00:00 TS 20.9239 87.8308 main 83 56 _________OP___ -1 21.0000 87.7000 TC 30 20.8477 87.9616 1 6 301
1922188N20089 1922 34 NI BB NOT_NAMED 1922-07-08 03:00:00 TS 21.1101 87.5113 main 56 15 _________PO___ -1 21.2201 87.3226 TC 30 21.0000 87.7000 1 8 304
1922188N20089 1922 34 NI BB NOT_NAMED 1922-07-08 06:00:00 TS 21.3661 87.1358 main 10 0 _________OP___ -1 21.5000 86.9000 TC 30 21.2321 87.3716 1 9 308
1922188N20089 1922 34 NI BB NOT_NAMED 1922-07-08 09:00:00 TS 21.6526 86.7690 main 0 0 _________PP___ -1 21.7999 86.5424 TC 30 21.5054 86.9955 1 9 310
1922188N20089 1922 34 NI BB NOT_NAMED 1922-07-08 12:00:00 TS 21.9504 86.3983 main 0 0 _________OP___ -1 22.1000 86.2000 TC 30 21.8009 86.5965 1 9 310
1922188N20089 1922 34 NI BB NOT_NAMED 1922-07-08 15:00:00 TS 22.2250 86.0249 main 0 0 _________PO___ -1 22.3499 85.8498 TC 30 22.1000 86.2000 1 9 309
1922188N20089 1922 34 NI BB NOT_NAMED 1922-07-08 18:00:00 TS 22.4936 85.6613 main 0 0 _________OP___ -1 22.6000 85.5000 TC 30 22.3871 85.8225 1 9 310
1922188N20089 1922 34 NI BB NOT_NAMED 1922-07-08 21:00:00 TS 22.7900 85.2951 main 0 0 _________PP___ -1 22.9075 85.1351 TC 30 22.6725 85.4551 1 9 312
1922188N20089 1922 34 NI BB NOT_NAMED 1922-07-09 00:00:00 TS 23.0733 84.9551 main 0 0 _________OP___ -1 23.2000 84.8000 TC 30 22.9466 85.1101 1 8 312
1922188N20089 1922 34 NI BB NOT_NAMED 1922-07-09 03:00:00 TS 23.3075 84.6637 main 0 0 _________PO___ -1 23.4149 84.5273 TC 30 23.2000 84.8000 1 7 312
1922188N20089 1922 34 NI BB NOT_NAMED 1922-07-09 06:00:00 TS 23.5106 84.4172 main 0 0 _________OP___ -1 23.6000 84.3000 TC 30 23.4212 84.5343 1 6 313
1922188N20089 1922 34 NI BB NOT_NAMED 1922-07-09 09:00:00 TS 23.7110 84.1983 main 0 0 _________PP___ -1 23.7999 84.0924 TC 30 23.6220 84.3042 1 6 316
1922188N20089 1922 34 NI BB NOT_NAMED 1922-07-09 12:00:00 TS 23.9059 83.9985 main 0 0 _________OP___ -1 24.0000 83.9000 TC 30 23.8119 84.0970 1 5 317
1922188N20089 1922 34 NI BB NOT_NAMED 1922-07-09 15:00:00 TS 24.1000 83.8000 main 0 0 _________PO___ -1 24.2000 83.6999 TC 30 24.0000 83.9000 1 5 317
1922188N20089 1922 34 NI BB NOT_NAMED 1922-07-09 18:00:00 TS 24.2821 83.6158 main 0 0 _________OP___ -1 24.4000 83.5000 TC 30 24.1937 83.7027 1 5 317
1922188N20089 1922 34 NI BB NOT_NAMED 1922-07-09 21:00:00 TS 24.4757 83.4220 main 0 0 _________PP___ -1 24.6001 83.3001 TC 30 24.3929 83.5033 1 5 318
1922188N20089 1922 34 NI BB NOT_NAMED 1922-07-10 00:00:00 TS 24.6637 83.2348 main 0 0 _________OP___ -1 24.8000 83.1000 TC 30 24.5956 83.3022 1 4 318
1922188N20089 1922 34 NI BB NOT_NAMED 1922-07-10 03:00:00 NR 24.8000 83.1000 main 0 __________O___ -1 TC 24.8000 83.1000 1 4 317

About IBTrACS Database

This database is a web-friendly format of International Best Track Archive for Climate Stewardship (IBTrACS), a global best track data archive curated by NOAA dating back to 1842.

Updated: 2021-10-08